Terminal Aerodrome Forecast
Issued by NWS

Home | Current Version | Previous Version | Text Only | Print | Product List | Glossary On
Versions: 1 2 3 4 5 6 7 8 9 10 11 12 13 14 15 16 17 18 19 20 21 22 23 24 25 26 27 28
000
FTUS44 KFWD 220300 AAA
TAFAFW
TAF AMD
KAFW 220301Z 2203/2224 13004KT P6SM FEW250
     FM221200 13004KT 6SM BR FEW040 FEW250
     FM221500 13008KT P6SM SCT050 SCT250=

USA.gov is the U.S. government's official web portal to all federal, state and local government web resources and services.